sensor_id;sensor_type;location;lat;lon;timestamp;P1;durP1;ratioP1;P2;durP2;ratioP2
20792;SDS011;10556;-33.662;151.094;2022-12-16T00:03:15;1.63;;;0.37;;
20792;SDS011;10556;-33.662;151.094;2022-12-16T00:08:17;1.53;;;0.30;;
20792;SDS011;10556;-33.662;151.094;2022-12-16T00:13:22;0.80;;;0.27;;
20792;SDS011;10556;-33.662;151.094;2022-12-16T00:18:24;0.93;;;0.20;;
20792;SDS011;10556;-33.662;151.094;2022-12-16T00:23:27;0.47;;;0.10;;
20792;SDS011;10556;-33.662;151.094;2022-12-16T00:28:32;0.30;;;0.20;;
20792;SDS011;10556;-33.662;151.094;2022-12-16T00:33:35;0.70;;;0.20;;
20792;SDS011;10556;-33.662;151.094;2022-12-16T00:38:37;2.53;;;0.73;;
20792;SDS011;10556;-33.662;151.094;2022-12-16T00:43:42;0.37;;;0.20;;
20792;SDS011;10556;-33.662;151.094;2022-12-16T00:48:44;0.53;;;0.10;;
20792;SDS011;10556;-33.662;151.094;2022-12-16T00:53:47;0.23;;;0.17;;
20792;SDS011;10556;-33.662;151.094;2022-12-16T00:58:51;1.00;;;0.30;;
20792;SDS011;10556;-33.662;151.094;2022-12-16T01:03:55;0.67;;;0.20;;
20792;SDS011;10556;-33.662;151.094;2022-12-16T01:08:57;1.27;;;0.30;;
20792;SDS011;10556;-33.662;151.094;2022-12-16T01:14:02;0.50;;;0.20;;
20792;SDS011;10556;-33.662;151.094;2022-12-16T01:19:04;0.57;;;0.20;;
20792;SDS011;10556;-33.662;151.094;2022-12-16T01:24:08;0.23;;;0.20;;
20792;SDS011;10556;-33.662;151.094;2022-12-16T01:29:13;0.93;;;0.30;;
20792;SDS011;10556;-33.662;151.094;2022-12-16T01:34:16;0.27;;;0.20;;
20792;SDS011;10556;-33.662;151.094;2022-12-16T01:39:18;1.17;;;0.30;;
20792;SDS011;10556;-33.662;151.094;2022-12-16T01:44:23;0.63;;;0.20;;
20792;SDS011;10556;-33.662;151.094;2022-12-16T01:49:28;1.03;;;0.20;;
20792;SDS011;10556;-33.662;151.094;2022-12-16T01:54:34;1.47;;;0.30;;
20792;SDS011;10556;-33.662;151.094;2022-12-16T01:59:41;0.83;;;0.23;;
20792;SDS011;10556;-33.662;151.094;2022-12-16T02:04:49;1.07;;;0.23;;
20792;SDS011;10556;-33.662;151.094;2022-12-16T02:09:52;0.70;;;0.20;;
20792;SDS011;10556;-33.662;151.094;2022-12-16T02:15:01;0.70;;;0.20;;
20792;SDS011;10556;-33.662;151.094;2022-12-16T02:25:51;0.87;;;0.37;;
20792;SDS011;10556;-33.662;151.094;2022-12-16T02:31:17;3.10;;;0.50;;
20792;SDS011;10556;-33.662;151.094;2022-12-16T02:36:25;2.33;;;0.37;;
20792;SDS011;10556;-33.662;151.094;2022-12-16T02:41:42;2.10;;;0.53;;
20792;SDS011;10556;-33.662;151.094;2022-12-16T02:46:54;1.27;;;0.37;;
20792;SDS011;10556;-33.662;151.094;2022-12-16T02:51:57;1.57;;;0.30;;
20792;SDS011;10556;-33.662;151.094;2022-12-16T02:57:02;1.20;;;0.40;;
20792;SDS011;10556;-33.662;151.094;2022-12-16T03:02:21;1.53;;;0.40;;
20792;SDS011;10556;-33.662;151.094;2022-12-16T03:07:26;3.33;;;0.50;;
20792;SDS011;10556;-33.662;151.094;2022-12-16T03:12:34;0.70;;;0.30;;
20792;SDS011;10556;-33.662;151.094;2022-12-16T03:17:42;3.00;;;0.40;;
20792;SDS011;10556;-33.662;151.094;2022-12-16T03:22:47;1.20;;;0.30;;
20792;SDS011;10556;-33.662;151.094;2022-12-16T03:27:54;1.60;;;0.43;;
20792;SDS011;10556;-33.662;151.094;2022-12-16T03:33:06;2.90;;;0.50;;
20792;SDS011;10556;-33.662;151.094;2022-12-16T03:38:13;1.53;;;0.30;;
20792;SDS011;10556;-33.662;151.094;2022-12-16T03:43:17;1.93;;;0.43;;
20792;SDS011;10556;-33.662;151.094;2022-12-16T03:48:23;2.27;;;0.47;;
20792;SDS011;10556;-33.662;151.094;2022-12-16T03:53:26;3.47;;;0.60;;
20792;SDS011;10556;-33.662;151.094;2022-12-16T03:58:29;1.47;;;0.40;;
20792;SDS011;10556;-33.662;151.094;2022-12-16T04:03:33;1.77;;;0.57;;
20792;SDS011;10556;-33.662;151.094;2022-12-16T04:08:36;3.10;;;0.57;;
20792;SDS011;10556;-33.662;151.094;2022-12-16T04:13:39;1.60;;;0.60;;
20792;SDS011;10556;-33.662;151.094;2022-12-16T04:18:43;2.20;;;0.57;;
20792;SDS011;10556;-33.662;151.094;2022-12-16T04:23:47;1.47;;;0.30;;
20792;SDS011;10556;-33.662;151.094;2022-12-16T04:28:52;3.00;;;0.63;;
20792;SDS011;10556;-33.662;151.094;2022-12-16T04:33:56;3.60;;;0.83;;
20792;SDS011;10556;-33.662;151.094;2022-12-16T04:38:59;1.73;;;0.60;;
20792;SDS011;10556;-33.662;151.094;2022-12-16T04:44:02;1.77;;;0.53;;
20792;SDS011;10556;-33.662;151.094;2022-12-16T04:49:06;1.10;;;0.50;;
20792;SDS011;10556;-33.662;151.094;2022-12-16T04:54:09;1.87;;;0.53;;
20792;SDS011;10556;-33.662;151.094;2022-12-16T04:59:11;3.30;;;0.60;;
20792;SDS011;10556;-33.662;151.094;2022-12-16T05:04:16;2.73;;;0.50;;
20792;SDS011;10556;-33.662;151.094;2022-12-16T05:09:19;4.47;;;0.67;;
20792;SDS011;10556;-33.662;151.094;2022-12-16T05:14:21;4.60;;;0.53;;
20792;SDS011;10556;-33.662;151.094;2022-12-16T05:19:25;1.40;;;0.53;;
20792;SDS011;10556;-33.662;151.094;2022-12-16T05:24:28;2.00;;;0.40;;
20792;SDS011;10556;-33.662;151.094;2022-12-16T05:29:31;3.23;;;0.80;;
20792;SDS011;10556;-33.662;151.094;2022-12-16T05:34:35;0.80;;;0.33;;
20792;SDS011;10556;-33.662;151.094;2022-12-16T05:39:38;3.03;;;0.70;;
20792;SDS011;10556;-33.662;151.094;2022-12-16T05:44:40;2.73;;;0.60;;
20792;SDS011;10556;-33.662;151.094;2022-12-16T05:49:45;6.77;;;1.13;;
20792;SDS011;10556;-33.662;151.094;2022-12-16T05:54:47;3.67;;;0.60;;
20792;SDS011;10556;-33.662;151.094;2022-12-16T05:59:50;2.13;;;0.73;;
20792;SDS011;10556;-33.662;151.094;2022-12-16T06:04:54;4.87;;;0.80;;
20792;SDS011;10556;-33.662;151.094;2022-12-16T06:09:57;2.57;;;0.43;;
20792;SDS011;10556;-33.662;151.094;2022-12-16T06:14:59;2.37;;;0.70;;
20792;SDS011;10556;-33.662;151.094;2022-12-16T06:20:04;2.17;;;0.77;;
20792;SDS011;10556;-33.662;151.094;2022-12-16T06:25:07;3.47;;;0.60;;
20792;SDS011;10556;-33.662;151.094;2022-12-16T06:30:10;1.90;;;0.40;;
20792;SDS011;10556;-33.662;151.094;2022-12-16T06:35:15;0.90;;;0.37;;
20792;SDS011;10556;-33.662;151.094;2022-12-16T06:40:17;3.00;;;0.70;;
20792;SDS011;10556;-33.662;151.094;2022-12-16T06:45:20;3.00;;;0.63;;
20792;SDS011;10556;-33.662;151.094;2022-12-16T06:50:24;2.30;;;0.40;;
20792;SDS011;10556;-33.662;151.094;2022-12-16T06:55:27;3.77;;;0.70;;
20792;SDS011;10556;-33.662;151.094;2022-12-16T07:00:30;3.73;;;0.77;;
20792;SDS011;10556;-33.662;151.094;2022-12-16T07:05:35;2.33;;;0.57;;
20792;SDS011;10556;-33.662;151.094;2022-12-16T07:10:37;2.47;;;0.40;;
20792;SDS011;10556;-33.662;151.094;2022-12-16T07:15:40;5.07;;;0.97;;
20792;SDS011;10556;-33.662;151.094;2022-12-16T07:20:44;3.40;;;0.60;;
20792;SDS011;10556;-33.662;151.094;2022-12-16T07:25:47;3.47;;;0.67;;
20792;SDS011;10556;-33.662;151.094;2022-12-16T07:30:50;2.87;;;0.83;;
20792;SDS011;10556;-33.662;151.094;2022-12-16T07:35:55;5.23;;;0.87;;
20792;SDS011;10556;-33.662;151.094;2022-12-16T07:40:57;4.67;;;0.87;;
20792;SDS011;10556;-33.662;151.094;2022-12-16T07:46:00;3.13;;;0.60;;
20792;SDS011;10556;-33.662;151.094;2022-12-16T07:51:04;3.97;;;0.90;;
20792;SDS011;10556;-33.662;151.094;2022-12-16T07:56:07;10.10;;;1.17;;
20792;SDS011;10556;-33.662;151.094;2022-12-16T08:01:10;5.13;;;1.43;;
20792;SDS011;10556;-33.662;151.094;2022-12-16T08:06:14;4.87;;;0.73;;
20792;SDS011;10556;-33.662;151.094;2022-12-16T08:11:17;4.60;;;1.00;;
20792;SDS011;10556;-33.662;151.094;2022-12-16T08:16:19;4.37;;;0.80;;
20792;SDS011;10556;-33.662;151.094;2022-12-16T08:21:24;4.70;;;1.03;;
20792;SDS011;10556;-33.662;151.094;2022-12-16T08:26:26;4.77;;;0.83;;
20792;SDS011;10556;-33.662;151.094;2022-12-16T08:31:29;6.07;;;1.20;;
20792;SDS011;10556;-33.662;151.094;2022-12-16T08:36:33;8.37;;;1.30;;
20792;SDS011;10556;-33.662;151.094;2022-12-16T08:41:36;5.93;;;0.83;;
20792;SDS011;10556;-33.662;151.094;2022-12-16T08:46:39;11.50;;;1.70;;
20792;SDS011;10556;-33.662;151.094;2022-12-16T08:51:43;8.43;;;1.60;;
20792;SDS011;10556;-33.662;151.094;2022-12-16T08:56:46;3.93;;;0.80;;
20792;SDS011;10556;-33.662;151.094;2022-12-16T09:01:48;7.90;;;1.13;;
20792;SDS011;10556;-33.662;151.094;2022-12-16T09:06:53;6.23;;;1.10;;
20792;SDS011;10556;-33.662;151.094;2022-12-16T09:11:56;8.43;;;1.53;;
20792;SDS011;10556;-33.662;151.094;2022-12-16T09:16:58;6.63;;;1.17;;
20792;SDS011;10556;-33.662;151.094;2022-12-16T09:22:02;3.27;;;0.73;;
20792;SDS011;10556;-33.662;151.094;2022-12-16T09:27:05;6.73;;;1.23;;
20792;SDS011;10556;-33.662;151.094;2022-12-16T09:32:08;7.27;;;1.50;;
20792;SDS011;10556;-33.662;151.094;2022-12-16T09:37:12;4.27;;;0.67;;
20792;SDS011;10556;-33.662;151.094;2022-12-16T09:42:17;11.50;;;1.30;;
20792;SDS011;10556;-33.662;151.094;2022-12-16T09:47:29;8.20;;;1.03;;
20792;SDS011;10556;-33.662;151.094;2022-12-16T09:52:41;6.50;;;1.67;;
20792;SDS011;10556;-33.662;151.094;2022-12-16T09:57:48;8.03;;;1.83;;
20792;SDS011;10556;-33.662;151.094;2022-12-16T10:02:50;4.73;;;0.80;;
20792;SDS011;10556;-33.662;151.094;2022-12-16T10:07:59;7.10;;;1.20;;
20792;SDS011;10556;-33.662;151.094;2022-12-16T10:13:11;12.80;;;1.50;;
20792;SDS011;10556;-33.662;151.094;2022-12-16T10:18:23;6.90;;;1.17;;
20792;SDS011;10556;-33.662;151.094;2022-12-16T10:23:37;4.70;;;0.77;;
20792;SDS011;10556;-33.662;151.094;2022-12-16T10:28:50;5.37;;;1.20;;
20792;SDS011;10556;-33.662;151.094;2022-12-16T10:33:57;3.57;;;0.80;;
20792;SDS011;10556;-33.662;151.094;2022-12-16T10:39:02;1.30;;;0.60;;
20792;SDS011;10556;-33.662;151.094;2022-12-16T10:44:14;7.77;;;1.57;;
20792;SDS011;10556;-33.662;151.094;2022-12-16T10:49:21;6.40;;;1.27;;
20792;SDS011;10556;-33.662;151.094;2022-12-16T10:54:31;4.10;;;0.90;;
20792;SDS011;10556;-33.662;151.094;2022-12-16T10:59:39;11.97;;;1.43;;
20792;SDS011;10556;-33.662;151.094;2022-12-16T11:04:42;6.03;;;1.43;;
20792;SDS011;10556;-33.662;151.094;2022-12-16T11:09:48;7.70;;;1.20;;
20792;SDS011;10556;-33.662;151.094;2022-12-16T11:14:51;5.20;;;1.10;;
20792;SDS011;10556;-33.662;151.094;2022-12-16T11:20:03;8.10;;;1.30;;
20792;SDS011;10556;-33.662;151.094;2022-12-16T11:25:12;4.60;;;0.80;;
20792;SDS011;10556;-33.662;151.094;2022-12-16T11:30:17;10.87;;;2.03;;
20792;SDS011;10556;-33.662;151.094;2022-12-16T11:35:23;9.27;;;1.37;;
20792;SDS011;10556;-33.662;151.094;2022-12-16T11:40:30;6.10;;;0.83;;
20792;SDS011;10556;-33.662;151.094;2022-12-16T11:45:33;4.83;;;1.07;;
20792;SDS011;10556;-33.662;151.094;2022-12-16T11:50:36;5.70;;;1.40;;
20792;SDS011;10556;-33.662;151.094;2022-12-16T11:55:43;4.93;;;0.80;;
20792;SDS011;10556;-33.662;151.094;2022-12-16T12:00:52;4.13;;;0.93;;
20792;SDS011;10556;-33.662;151.094;2022-12-16T12:05:59;5.97;;;0.80;;
20792;SDS011;10556;-33.662;151.094;2022-12-16T12:11:11;11.13;;;1.20;;
20792;SDS011;10556;-33.662;151.094;2022-12-16T12:16:20;8.27;;;1.20;;
20792;SDS011;10556;-33.662;151.094;2022-12-16T12:21:29;4.43;;;0.80;;
20792;SDS011;10556;-33.662;151.094;2022-12-16T12:26:42;9.50;;;1.50;;
20792;SDS011;10556;-33.662;151.094;2022-12-16T12:31:50;7.10;;;1.27;;
20792;SDS011;10556;-33.662;151.094;2022-12-16T12:37:02;8.60;;;1.17;;
20792;SDS011;10556;-33.662;151.094;2022-12-16T12:42:15;4.17;;;0.90;;
20792;SDS011;10556;-33.662;151.094;2022-12-16T12:47:26;4.13;;;0.83;;
20792;SDS011;10556;-33.662;151.094;2022-12-16T12:52:41;4.13;;;1.00;;
20792;SDS011;10556;-33.662;151.094;2022-12-16T12:57:58;6.83;;;0.87;;
20792;SDS011;10556;-33.662;151.094;2022-12-16T13:03:04;4.67;;;1.00;;
20792;SDS011;10556;-33.662;151.094;2022-12-16T13:13:34;3.53;;;0.83;;
20792;SDS011;10556;-33.662;151.094;2022-12-16T13:18:37;3.20;;;0.70;;
20792;SDS011;10556;-33.662;151.094;2022-12-16T13:23:40;2.80;;;0.70;;
20792;SDS011;10556;-33.662;151.094;2022-12-16T13:28:46;4.50;;;1.13;;
20792;SDS011;10556;-33.662;151.094;2022-12-16T13:34:19;6.00;;;0.60;;
20792;SDS011;10556;-33.662;151.094;2022-12-16T13:39:27;4.33;;;0.80;;
20792;SDS011;10556;-33.662;151.094;2022-12-16T13:49:57;4.53;;;0.70;;
20792;SDS011;10556;-33.662;151.094;2022-12-16T13:55:22;5.80;;;0.67;;
20792;SDS011;10556;-33.662;151.094;2022-12-16T14:00:30;2.40;;;0.60;;
20792;SDS011;10556;-33.662;151.094;2022-12-16T14:05:41;2.97;;;0.57;;
20792;SDS011;10556;-33.662;151.094;2022-12-16T14:10:44;4.60;;;0.80;;
20792;SDS011;10556;-33.662;151.094;2022-12-16T14:16:00;2.77;;;0.80;;
20792;SDS011;10556;-33.662;151.094;2022-12-16T14:21:11;5.80;;;1.00;;
20792;SDS011;10556;-33.662;151.094;2022-12-16T14:26:18;4.30;;;0.77;;
20792;SDS011;10556;-33.662;151.094;2022-12-16T14:31:24;3.53;;;0.90;;
20792;SDS011;10556;-33.662;151.094;2022-12-16T14:36:28;2.53;;;0.90;;
20792;SDS011;10556;-33.662;151.094;2022-12-16T14:41:39;7.13;;;0.97;;
20792;SDS011;10556;-33.662;151.094;2022-12-16T14:46:43;3.23;;;0.87;;
20792;SDS011;10556;-33.662;151.094;2022-12-16T14:51:50;3.40;;;0.90;;
20792;SDS011;10556;-33.662;151.094;2022-12-16T14:56:56;4.23;;;0.90;;
20792;SDS011;10556;-33.662;151.094;2022-12-16T15:02:02;6.53;;;1.17;;
20792;SDS011;10556;-33.662;151.094;2022-12-16T15:07:14;5.80;;;1.07;;
20792;SDS011;10556;-33.662;151.094;2022-12-16T15:12:18;5.10;;;0.60;;
20792;SDS011;10556;-33.662;151.094;2022-12-16T15:17:25;3.67;;;0.70;;
20792;SDS011;10556;-33.662;151.094;2022-12-16T15:22:30;2.87;;;0.60;;
20792;SDS011;10556;-33.662;151.094;2022-12-16T15:27:33;2.37;;;0.50;;
20792;SDS011;10556;-33.662;151.094;2022-12-16T15:32:40;3.87;;;0.70;;
20792;SDS011;10556;-33.662;151.094;2022-12-16T15:37:43;5.60;;;0.80;;
20792;SDS011;10556;-33.662;151.094;2022-12-16T15:42:48;5.00;;;1.23;;
20792;SDS011;10556;-33.662;151.094;2022-12-16T15:47:54;3.83;;;0.60;;
20792;SDS011;10556;-33.662;151.094;2022-12-16T15:53:04;2.97;;;0.50;;
20792;SDS011;10556;-33.662;151.094;2022-12-16T15:58:19;4.10;;;0.70;;
20792;SDS011;10556;-33.662;151.094;2022-12-16T16:03:26;3.00;;;0.60;;
20792;SDS011;10556;-33.662;151.094;2022-12-16T16:08:30;1.23;;;0.40;;
20792;SDS011;10556;-33.662;151.094;2022-12-16T16:13:33;1.87;;;0.90;;
20792;SDS011;10556;-33.662;151.094;2022-12-16T16:18:37;3.60;;;0.63;;
20792;SDS011;10556;-33.662;151.094;2022-12-16T16:23:41;2.63;;;0.57;;
20792;SDS011;10556;-33.662;151.094;2022-12-16T16:28:43;3.10;;;0.60;;
20792;SDS011;10556;-33.662;151.094;2022-12-16T16:33:48;5.53;;;0.63;;
20792;SDS011;10556;-33.662;151.094;2022-12-16T16:38:50;5.63;;;0.93;;
20792;SDS011;10556;-33.662;151.094;2022-12-16T16:43:53;2.37;;;0.60;;
20792;SDS011;10556;-33.662;151.094;2022-12-16T16:48:57;5.80;;;0.50;;
20792;SDS011;10556;-33.662;151.094;2022-12-16T16:54:01;5.30;;;0.60;;
20792;SDS011;10556;-33.662;151.094;2022-12-16T16:59:04;5.97;;;0.80;;
20792;SDS011;10556;-33.662;151.094;2022-12-16T17:04:08;5.47;;;0.80;;
20792;SDS011;10556;-33.662;151.094;2022-12-16T17:09:11;1.77;;;0.80;;
20792;SDS011;10556;-33.662;151.094;2022-12-16T17:14:15;3.77;;;0.70;;
20792;SDS011;10556;-33.662;151.094;2022-12-16T17:19:20;3.93;;;0.70;;
20792;SDS011;10556;-33.662;151.094;2022-12-16T17:24:22;1.83;;;0.50;;
20792;SDS011;10556;-33.662;151.094;2022-12-16T17:29:25;3.27;;;0.53;;
20792;SDS011;10556;-33.662;151.094;2022-12-16T17:34:30;3.93;;;0.53;;
20792;SDS011;10556;-33.662;151.094;2022-12-16T17:39:32;2.23;;;0.43;;
20792;SDS011;10556;-33.662;151.094;2022-12-16T17:44:35;2.23;;;0.50;;
20792;SDS011;10556;-33.662;151.094;2022-12-16T17:49:39;3.03;;;0.70;;
20792;SDS011;10556;-33.662;151.094;2022-12-16T17:54:42;2.07;;;0.40;;
20792;SDS011;10556;-33.662;151.094;2022-12-16T17:59:45;3.90;;;0.53;;
20792;SDS011;10556;-33.662;151.094;2022-12-16T18:04:49;0.87;;;0.27;;
20792;SDS011;10556;-33.662;151.094;2022-12-16T18:09:52;2.07;;;0.30;;
20792;SDS011;10556;-33.662;151.094;2022-12-16T18:14:54;1.27;;;0.40;;
20792;SDS011;10556;-33.662;151.094;2022-12-16T18:19:59;0.80;;;0.40;;
20792;SDS011;10556;-33.662;151.094;2022-12-16T18:25:01;2.07;;;0.37;;
20792;SDS011;10556;-33.662;151.094;2022-12-16T18:30:04;1.20;;;0.40;;
20792;SDS011;10556;-33.662;151.094;2022-12-16T18:35:09;0.70;;;0.20;;
20792;SDS011;10556;-33.662;151.094;2022-12-16T18:40:12;0.40;;;0.20;;
20792;SDS011;10556;-33.662;151.094;2022-12-16T18:45:15;1.63;;;0.50;;
20792;SDS011;10556;-33.662;151.094;2022-12-16T18:50:22;1.97;;;0.20;;
20792;SDS011;10556;-33.662;151.094;2022-12-16T18:55:24;0.93;;;0.20;;
20792;SDS011;10556;-33.662;151.094;2022-12-16T19:00:27;1.47;;;0.20;;
20792;SDS011;10556;-33.662;151.094;2022-12-16T19:05:31;1.03;;;0.30;;
20792;SDS011;10556;-33.662;151.094;2022-12-16T19:10:34;1.53;;;0.40;;
20792;SDS011;10556;-33.662;151.094;2022-12-16T19:15:37;1.33;;;0.30;;
20792;SDS011;10556;-33.662;151.094;2022-12-16T19:20:41;1.77;;;0.30;;
20792;SDS011;10556;-33.662;151.094;2022-12-16T19:25:43;0.83;;;0.30;;
20792;SDS011;10556;-33.662;151.094;2022-12-16T19:30:52;0.63;;;0.20;;
20792;SDS011;10556;-33.662;151.094;2022-12-16T19:35:57;0.87;;;0.50;;
20792;SDS011;10556;-33.662;151.094;2022-12-16T19:41:00;0.60;;;0.20;;
20792;SDS011;10556;-33.662;151.094;2022-12-16T19:46:02;0.73;;;0.23;;
20792;SDS011;10556;-33.662;151.094;2022-12-16T19:51:07;1.20;;;0.20;;
20792;SDS011;10556;-33.662;151.094;2022-12-16T19:56:10;1.07;;;0.30;;
20792;SDS011;10556;-33.662;151.094;2022-12-16T20:01:12;0.93;;;0.40;;
20792;SDS011;10556;-33.662;151.094;2022-12-16T20:06:17;0.37;;;0.17;;
20792;SDS011;10556;-33.662;151.094;2022-12-16T20:11:19;1.03;;;0.20;;
20792;SDS011;10556;-33.662;151.094;2022-12-16T20:16:22;0.97;;;0.27;;
20792;SDS011;10556;-33.662;151.094;2022-12-16T20:21:26;1.53;;;0.20;;
20792;SDS011;10556;-33.662;151.094;2022-12-16T20:26:29;0.50;;;0.20;;
20792;SDS011;10556;-33.662;151.094;2022-12-16T20:31:32;1.23;;;0.50;;
20792;SDS011;10556;-33.662;151.094;2022-12-16T20:36:36;0.40;;;0.30;;
20792;SDS011;10556;-33.662;151.094;2022-12-16T20:41:39;1.23;;;0.23;;
20792;SDS011;10556;-33.662;151.094;2022-12-16T20:46:42;1.37;;;0.60;;
20792;SDS011;10556;-33.662;151.094;2022-12-16T20:51:46;0.37;;;0.20;;
20792;SDS011;10556;-33.662;151.094;2022-12-16T20:56:49;0.60;;;0.23;;
20792;SDS011;10556;-33.662;151.094;2022-12-16T21:01:51;1.53;;;0.20;;
20792;SDS011;10556;-33.662;151.094;2022-12-16T21:06:56;2.40;;;0.60;;
20792;SDS011;10556;-33.662;151.094;2022-12-16T21:11:58;4.27;;;0.40;;
20792;SDS011;10556;-33.662;151.094;2022-12-16T21:17:01;1.03;;;0.30;;
20792;SDS011;10556;-33.662;151.094;2022-12-16T21:22:05;2.23;;;0.70;;
20792;SDS011;10556;-33.662;151.094;2022-12-16T21:27:08;1.50;;;0.27;;
20792;SDS011;10556;-33.662;151.094;2022-12-16T21:32:11;1.00;;;0.30;;
20792;SDS011;10556;-33.662;151.094;2022-12-16T21:37:15;1.50;;;0.30;;
20792;SDS011;10556;-33.662;151.094;2022-12-16T21:42:17;0.27;;;0.20;;
20792;SDS011;10556;-33.662;151.094;2022-12-16T21:47:20;0.70;;;0.30;;
20792;SDS011;10556;-33.662;151.094;2022-12-16T21:52:25;1.07;;;0.27;;
20792;SDS011;10556;-33.662;151.094;2022-12-16T21:57:27;1.07;;;0.27;;
20792;SDS011;10556;-33.662;151.094;2022-12-16T22:02:30;2.57;;;0.33;;
20792;SDS011;10556;-33.662;151.094;2022-12-16T22:07:34;1.77;;;0.27;;
20792;SDS011;10556;-33.662;151.094;2022-12-16T22:12:37;2.20;;;0.57;;
20792;SDS011;10556;-33.662;151.094;2022-12-16T22:17:39;0.90;;;0.23;;
20792;SDS011;10556;-33.662;151.094;2022-12-16T22:22:44;1.77;;;0.40;;
20792;SDS011;10556;-33.662;151.094;2022-12-16T22:27:46;1.67;;;0.20;;
20792;SDS011;10556;-33.662;151.094;2022-12-16T22:32:49;1.07;;;0.30;;
20792;SDS011;10556;-33.662;151.094;2022-12-16T22:37:53;1.10;;;0.30;;
20792;SDS011;10556;-33.662;151.094;2022-12-16T22:42:56;2.90;;;0.30;;
20792;SDS011;10556;-33.662;151.094;2022-12-16T22:47:58;1.23;;;0.33;;
20792;SDS011;10556;-33.662;151.094;2022-12-16T22:53:03;3.87;;;0.60;;
20792;SDS011;10556;-33.662;151.094;2022-12-16T22:58:06;2.13;;;0.30;;
20792;SDS011;10556;-33.662;151.094;2022-12-16T23:03:11;0.87;;;0.30;;
20792;SDS011;10556;-33.662;151.094;2022-12-16T23:08:18;1.17;;;0.20;;
20792;SDS011;10556;-33.662;151.094;2022-12-16T23:13:21;1.93;;;0.23;;
20792;SDS011;10556;-33.662;151.094;2022-12-16T23:18:25;2.20;;;0.50;;
20792;SDS011;10556;-33.662;151.094;2022-12-16T23:23:29;1.27;;;0.40;;
20792;SDS011;10556;-33.662;151.094;2022-12-16T23:28:32;1.20;;;0.40;;
20792;SDS011;10556;-33.662;151.094;2022-12-16T23:33:35;2.40;;;0.53;;
20792;SDS011;10556;-33.662;151.094;2022-12-16T23:38:39;2.23;;;0.50;;
20792;SDS011;10556;-33.662;151.094;2022-12-16T23:43:42;2.00;;;0.30;;
20792;SDS011;10556;-33.662;151.094;2022-12-16T23:48:44;1.30;;;0.37;;
20792;SDS011;10556;-33.662;151.094;2022-12-16T23:53:49;1.63;;;0.37;;
20792;SDS011;10556;-33.662;151.094;2022-12-16T23:58:52;2.93;;;0.30;;
